Kyrgyzstan B733 at Krasnodar on Aug 2nd 2015, landed on closed runway

Last Update: August 3, 2015 / 14:58:41 GMT/Zulu time

Bookmark this article
Incident Facts

Date of incident
Aug 2, 2015

Classification
Incident

Flight number
QH-915

Aircraft Registration
EX-37301

Aircraft Type
Boeing 737-300

ICAO Type Designator
B733

Airport ICAO Code
URKK

An Air Kyrgyzstan Boeing 737-300, registration EX-37301 performing flight QH-915 from Bishkek (Kyrgyzstan) to Krasnodar (Russia) with 122 people on board, was cleared to land on Krasnodar's runway 05C but touched down on currently closed runway 05R at about 10:45L (07:45Z), rolled out safely and stopped on the runway, where passengers disembarked.

The aircraft was towed to the apron at about 13:10L.

The aircraft departed for its return flight QH-916 on schedule at about 21:15L, about 10.5 hours later.

Runway 05R/23L is currently being reconstructed, the runway itself has already been finished, the aerodrome infrastructure is currently being worked upon, the runway is estimated to return to service in September 2015. The runway is marked with cross marks indicating it is closed.

Russia's Authorities delegated the investigation to the Authorities of Kyrgyzstan.

Related NOTAM:
A2134/15 - FLW RWY AND TWY CLOSED DUE TO REPAIR WORKS:
- RWY 05R/23L,
- TWY C SEGMENT FROM TWY M TO TWY D,
- TWY D, TWY E, TWY F, TWY G, TWY H. 28 MAY 13:20 2015 UNTIL 31 DEC 21:00 2015.

Metars:
URKK 021000Z 06006MPS CAVOK 30/17 Q1017 R05C/CLRD70 NOSIG RMK QFE759
URKK 020930Z 05006MPS 010V070 CAVOK 29/17 Q1017 R05C/CLRD70 NOSIG RMK QFE759
URKK 020900Z 05006MPS CAVOK 28/17 Q1017 R05C/CLRD70 NOSIG RMK QFE759
URKK 020830Z 03006MPS 350V070 CAVOK 28/17 Q1017 R05C/CLRD70 NOSIG RMK QFE759
URKK 020800Z 04006MPS CAVOK 28/17 Q1017 R05C/CLRD70 NOSIG RMK QFE759
URKK 020730Z 06006MPS CAVOK 27/17 Q1017 R05C/CLRD70 NOSIG RMK QFE759
URKK 020700Z 06006MPS 030V090 CAVOK 26/16 Q1017 R05C/CLRD70 NOSIG RMK QFE759
URKK 020630Z 04006MPS CAVOK 25/16 Q1017 R05C/CLRD70 NOSIG RMK QFE759
URKK 020600Z 04006MPS CAVOK 25/16 Q1017 R05C/CLRD70 NOSIG RMK QFE759
URKK 020530Z 06006MPS CAVOK 24/16 Q1017 R05C/CLRD70 NOSIG RMK QFE759
URKK 020500Z 04007MPS CAVOK 23/16 Q1017 R05C/CLRD70 NOSIG RMK QFE759
URKK 020430Z 04006MPS CAVOK 23/16 Q1017 R05C/CLRD70 NOSIG RMK QFE759
URKK 020400Z 04006MPS CAVOK 23/16 Q1017 R05C/CLRD70 NOSIG RMK QFE759
Incident Facts

Date of incident
Aug 2, 2015

Classification
Incident

Flight number
QH-915

Aircraft Registration
EX-37301

Aircraft Type
Boeing 737-300

ICAO Type Designator
B733

Airport ICAO Code
URKK

This article is published under license from Avherald.com. © of text by Avherald.com.
Article source

You can read 2 more free articles without a subscription.

Subscribe now and continue reading without any limits!

Are you a subscriber? Login
Subscribe

Read unlimited articles and receive our daily update briefing. Gain better insights into what is happening in commercial aviation safety.

Free newsletter

Want to know more and stay ahead? Get our free weekly newsletter and join 5470 existing subscribers.

By subscribing, you accept our terms and conditions and confirm that you've read our privacy policy.

Send tip

Support AeroInside by sending a small tip amount.

Newest articles

Subscribe today

Are you researching aviation incidents? Get access to AeroInside Insights, unlimited read access and receive the daily newsletter.

Pick your plan and subscribe

Partner

Blockaviation logo

A new way to document and demonstrate airworthiness compliance and aircraft value. Find out more.

Virtual Speech logo

ELITE Simulation Solutions is a leading global provider of Flight Simulation Training Devices, IFR training software as well as flight controls and related services. Find out more.

Get updates

Never miss an article from AeroInside. Subscribe to our free weekly newsletter and join 5470 existing subscribers.

By subscribing, you accept our terms and conditions and that you've read our privacy policy.

AeroInside Blog
Popular aircraft
Airbus A320
Boeing 737-800
Boeing 737-800 MAX
Popular airlines
American Airlines
United
Delta
Air Canada
Lufthansa
British Airways